sensor_id;sensor_type;location;lat;lon;timestamp;P1;durP1;ratioP1;P2;durP2;ratioP2
70729;SDS011;58315;53.336;55.932;2023-03-01T00:02:21;5.63;;;2.38;;
70729;SDS011;58315;53.336;55.932;2023-03-01T00:04:47;6.38;;;3.05;;
70729;SDS011;58315;53.336;55.932;2023-03-01T00:07:13;6.30;;;3.22;;
70729;SDS011;58315;53.336;55.932;2023-03-01T00:09:39;12.13;;;2.85;;
70729;SDS011;58315;53.336;55.932;2023-03-01T00:12:05;4.53;;;2.47;;
70729;SDS011;58315;53.336;55.932;2023-03-01T00:14:32;6.65;;;2.83;;
70729;SDS011;58315;53.336;55.932;2023-03-01T00:16:59;5.65;;;2.85;;
70729;SDS011;58315;53.336;55.932;2023-03-01T00:19:43;6.22;;;3.35;;
70729;SDS011;58315;53.336;55.932;2023-03-01T00:22:09;4.75;;;2.63;;
70729;SDS011;58315;53.336;55.932;2023-03-01T00:24:35;7.57;;;3.05;;
70729;SDS011;58315;53.336;55.932;2023-03-01T00:27:01;5.55;;;2.63;;
70729;SDS011;58315;53.336;55.932;2023-03-01T00:29:27;7.15;;;3.50;;
70729;SDS011;58315;53.336;55.932;2023-03-01T00:32:12;7.07;;;3.25;;
70729;SDS011;58315;53.336;55.932;2023-03-01T00:34:37;9.23;;;3.75;;
70729;SDS011;58315;53.336;55.932;2023-03-01T00:37:04;4.38;;;2.78;;
70729;SDS011;58315;53.336;55.932;2023-03-01T00:39:31;10.68;;;3.10;;
70729;SDS011;58315;53.336;55.932;2023-03-01T00:41:58;6.88;;;3.42;;
70729;SDS011;58315;53.336;55.932;2023-03-01T00:44:24;5.13;;;2.58;;
70729;SDS011;58315;53.336;55.932;2023-03-01T00:46:50;7.22;;;3.45;;
70729;SDS011;58315;53.336;55.932;2023-03-01T00:49:16;4.40;;;2.40;;
70729;SDS011;58315;53.336;55.932;2023-03-01T00:51:42;8.60;;;3.53;;
70729;SDS011;58315;53.336;55.932;2023-03-01T00:54:08;5.20;;;2.03;;
70729;SDS011;58315;53.336;55.932;2023-03-01T00:56:34;6.00;;;3.13;;
70729;SDS011;58315;53.336;55.932;2023-03-01T00:59:00;7.03;;;3.95;;
70729;SDS011;58315;53.336;55.932;2023-03-01T01:01:28;6.80;;;3.58;;
70729;SDS011;58315;53.336;55.932;2023-03-01T01:04:00;7.97;;;3.90;;
70729;SDS011;58315;53.336;55.932;2023-03-01T01:06:39;5.95;;;3.00;;
70729;SDS011;58315;53.336;55.932;2023-03-01T01:09:08;15.00;;;4.22;;
70729;SDS011;58315;53.336;55.932;2023-03-01T01:11:45;8.93;;;4.38;;
70729;SDS011;58315;53.336;55.932;2023-03-01T01:14:13;8.20;;;3.95;;
70729;SDS011;58315;53.336;55.932;2023-03-01T01:16:40;6.15;;;3.45;;
70729;SDS011;58315;53.336;55.932;2023-03-01T01:19:06;9.13;;;3.40;;
70729;SDS011;58315;53.336;55.932;2023-03-01T01:21:32;5.90;;;3.03;;
70729;SDS011;58315;53.336;55.932;2023-03-01T01:23:59;3.65;;;2.25;;
70729;SDS011;58315;53.336;55.932;2023-03-01T01:26:26;5.50;;;2.38;;
70729;SDS011;58315;53.336;55.932;2023-03-01T01:28:53;5.90;;;2.60;;
70729;SDS011;58315;53.336;55.932;2023-03-01T01:31:20;3.58;;;2.55;;
70729;SDS011;58315;53.336;55.932;2023-03-01T01:33:51;4.95;;;2.65;;
70729;SDS011;58315;53.336;55.932;2023-03-01T01:36:18;7.22;;;3.10;;
70729;SDS011;58315;53.336;55.932;2023-03-01T01:38:44;4.43;;;2.42;;
70729;SDS011;58315;53.336;55.932;2023-03-01T01:41:11;6.50;;;2.20;;
70729;SDS011;58315;53.336;55.932;2023-03-01T01:43:39;4.60;;;2.28;;
70729;SDS011;58315;53.336;55.932;2023-03-01T01:48:40;4.00;;;1.75;;
70729;SDS011;58315;53.336;55.932;2023-03-01T01:51:14;5.38;;;2.97;;
70729;SDS011;58315;53.336;55.932;2023-03-01T01:53:44;5.45;;;3.08;;
70729;SDS011;58315;53.336;55.932;2023-03-01T01:56:17;8.35;;;3.72;;
70729;SDS011;58315;53.336;55.932;2023-03-01T01:58:44;4.00;;;2.33;;
70729;SDS011;58315;53.336;55.932;2023-03-01T02:01:13;7.65;;;2.85;;
70729;SDS011;58315;53.336;55.932;2023-03-01T02:03:39;4.65;;;2.90;;
70729;SDS011;58315;53.336;55.932;2023-03-01T02:06:12;4.95;;;2.80;;
70729;SDS011;58315;53.336;55.932;2023-03-01T02:08:55;5.10;;;2.65;;
70729;SDS011;58315;53.336;55.932;2023-03-01T02:11:25;7.80;;;2.58;;
70729;SDS011;58315;53.336;55.932;2023-03-01T02:13:53;4.95;;;2.58;;
70729;SDS011;58315;53.336;55.932;2023-03-01T02:16:20;4.68;;;2.53;;
70729;SDS011;58315;53.336;55.932;2023-03-01T02:18:47;5.25;;;2.92;;
70729;SDS011;58315;53.336;55.932;2023-03-01T02:24:15;16.63;;;3.47;;
70729;SDS011;58315;53.336;55.932;2023-03-01T02:26:45;5.55;;;2.30;;
70729;SDS011;58315;53.336;55.932;2023-03-01T02:29:32;4.53;;;2.57;;
70729;SDS011;58315;53.336;55.932;2023-03-01T02:31:59;4.70;;;2.33;;
70729;SDS011;58315;53.336;55.932;2023-03-01T02:34:27;4.25;;;2.35;;
70729;SDS011;58315;53.336;55.932;2023-03-01T02:39:26;8.48;;;2.78;;
70729;SDS011;58315;53.336;55.932;2023-03-01T02:41:56;4.13;;;2.70;;
70729;SDS011;58315;53.336;55.932;2023-03-01T02:44:23;4.18;;;2.22;;
70729;SDS011;58315;53.336;55.932;2023-03-01T02:46:53;6.70;;;2.97;;
70729;SDS011;58315;53.336;55.932;2023-03-01T02:49:29;4.45;;;1.80;;
70729;SDS011;58315;53.336;55.932;2023-03-01T02:54:57;5.78;;;2.53;;
70729;SDS011;58315;53.336;55.932;2023-03-01T02:57:29;4.50;;;2.60;;
70729;SDS011;58315;53.336;55.932;2023-03-01T02:59:57;4.70;;;2.13;;
70729;SDS011;58315;53.336;55.932;2023-03-01T03:02:33;5.43;;;2.80;;
70729;SDS011;58315;53.336;55.932;2023-03-01T03:05:09;2.20;;;1.55;;
70729;SDS011;58315;53.336;55.932;2023-03-01T03:07:38;5.67;;;2.90;;
70729;SDS011;58315;53.336;55.932;2023-03-01T03:10:15;7.38;;;3.72;;
70729;SDS011;58315;53.336;55.932;2023-03-01T03:12:48;9.07;;;3.13;;
70729;SDS011;58315;53.336;55.932;2023-03-01T03:15:18;2.85;;;1.92;;
70729;SDS011;58315;53.336;55.932;2023-03-01T03:17:45;5.70;;;3.55;;
70729;SDS011;58315;53.336;55.932;2023-03-01T03:20:12;3.45;;;1.90;;
70729;SDS011;58315;53.336;55.932;2023-03-01T03:22:45;5.72;;;2.88;;
70729;SDS011;58315;53.336;55.932;2023-03-01T03:25:16;4.85;;;2.85;;
70729;SDS011;58315;53.336;55.932;2023-03-01T03:27:43;3.92;;;2.03;;
70729;SDS011;58315;53.336;55.932;2023-03-01T03:30:11;6.38;;;2.53;;
70729;SDS011;58315;53.336;55.932;2023-03-01T03:32:39;8.57;;;2.85;;
70729;SDS011;58315;53.336;55.932;2023-03-01T03:35:09;7.00;;;3.42;;
70729;SDS011;58315;53.336;55.932;2023-03-01T03:37:37;4.63;;;2.53;;
70729;SDS011;58315;53.336;55.932;2023-03-01T03:40:24;6.50;;;2.63;;
70729;SDS011;58315;53.336;55.932;2023-03-01T03:42:51;4.82;;;2.80;;
70729;SDS011;58315;53.336;55.932;2023-03-01T03:45:17;8.00;;;3.15;;
70729;SDS011;58315;53.336;55.932;2023-03-01T03:47:43;3.65;;;2.30;;
70729;SDS011;58315;53.336;55.932;2023-03-01T03:50:11;4.70;;;2.35;;
70729;SDS011;58315;53.336;55.932;2023-03-01T03:52:38;4.95;;;3.30;;
70729;SDS011;58315;53.336;55.932;2023-03-01T03:55:05;6.55;;;2.97;;
70729;SDS011;58315;53.336;55.932;2023-03-01T03:57:39;4.63;;;2.45;;
70729;SDS011;58315;53.336;55.932;2023-03-01T04:00:06;6.80;;;3.03;;
70729;SDS011;58315;53.336;55.932;2023-03-01T04:02:42;7.18;;;2.90;;
70729;SDS011;58315;53.336;55.932;2023-03-01T04:05:09;5.97;;;3.13;;
70729;SDS011;58315;53.336;55.932;2023-03-01T04:07:37;3.22;;;1.80;;
70729;SDS011;58315;53.336;55.932;2023-03-01T04:10:04;6.00;;;2.75;;
70729;SDS011;58315;53.336;55.932;2023-03-01T04:12:32;3.13;;;1.73;;
70729;SDS011;58315;53.336;55.932;2023-03-01T04:15:02;5.28;;;2.47;;
70729;SDS011;58315;53.336;55.932;2023-03-01T04:17:44;5.65;;;2.17;;
70729;SDS011;58315;53.336;55.932;2023-03-01T04:20:13;5.72;;;2.88;;
70729;SDS011;58315;53.336;55.932;2023-03-01T04:22:57;4.70;;;2.97;;
70729;SDS011;58315;53.336;55.932;2023-03-01T04:25:25;5.43;;;2.80;;
70729;SDS011;58315;53.336;55.932;2023-03-01T04:27:52;5.25;;;2.92;;
70729;SDS011;58315;53.336;55.932;2023-03-01T04:30:18;4.05;;;2.33;;
70729;SDS011;58315;53.336;55.932;2023-03-01T04:32:44;4.97;;;2.40;;
70729;SDS011;58315;53.336;55.932;2023-03-01T04:35:10;8.10;;;3.22;;
70729;SDS011;58315;53.336;55.932;2023-03-01T04:37:36;8.63;;;3.53;;
70729;SDS011;58315;53.336;55.932;2023-03-01T04:40:02;5.85;;;2.40;;
70729;SDS011;58315;53.336;55.932;2023-03-01T04:42:41;9.15;;;3.25;;
70729;SDS011;58315;53.336;55.932;2023-03-01T04:45:08;7.00;;;3.33;;
70729;SDS011;58315;53.336;55.932;2023-03-01T04:47:44;6.70;;;3.45;;
70729;SDS011;58315;53.336;55.932;2023-03-01T04:50:12;5.07;;;2.85;;
70729;SDS011;58315;53.336;55.932;2023-03-01T04:52:40;7.88;;;3.30;;
70729;SDS011;58315;53.336;55.932;2023-03-01T04:55:07;6.38;;;2.88;;
70729;SDS011;58315;53.336;55.932;2023-03-01T04:57:33;7.90;;;3.83;;
70729;SDS011;58315;53.336;55.932;2023-03-01T05:00:00;6.60;;;2.38;;
70729;SDS011;58315;53.336;55.932;2023-03-01T05:02:26;6.03;;;3.28;;
70729;SDS011;58315;53.336;55.932;2023-03-01T05:04:52;7.55;;;3.25;;
70729;SDS011;58315;53.336;55.932;2023-03-01T05:07:22;6.22;;;2.70;;
70729;SDS011;58315;53.336;55.932;2023-03-01T05:09:50;6.90;;;3.30;;
70729;SDS011;58315;53.336;55.932;2023-03-01T05:12:16;6.95;;;3.22;;
70729;SDS011;58315;53.336;55.932;2023-03-01T05:14:42;7.35;;;3.95;;
70729;SDS011;58315;53.336;55.932;2023-03-01T05:17:07;6.95;;;3.22;;
70729;SDS011;58315;53.336;55.932;2023-03-01T05:19:52;4.95;;;2.88;;
70729;SDS011;58315;53.336;55.932;2023-03-01T05:22:20;4.65;;;3.08;;
70729;SDS011;58315;53.336;55.932;2023-03-01T05:25:05;7.53;;;3.88;;
70729;SDS011;58315;53.336;55.932;2023-03-01T05:27:33;5.78;;;2.97;;
70729;SDS011;58315;53.336;55.932;2023-03-01T05:29:59;6.60;;;3.05;;
70729;SDS011;58315;53.336;55.932;2023-03-01T05:32:37;5.80;;;2.88;;
70729;SDS011;58315;53.336;55.932;2023-03-01T05:35:03;7.50;;;3.47;;
70729;SDS011;58315;53.336;55.932;2023-03-01T05:37:29;11.85;;;4.53;;
70729;SDS011;58315;53.336;55.932;2023-03-01T05:42:45;6.22;;;2.90;;
70729;SDS011;58315;53.336;55.932;2023-03-01T05:45:13;9.48;;;3.90;;
70729;SDS011;58315;53.336;55.932;2023-03-01T05:47:40;7.60;;;2.58;;
70729;SDS011;58315;53.336;55.932;2023-03-01T05:52:39;6.13;;;3.00;;
70729;SDS011;58315;53.336;55.932;2023-03-01T05:55:05;6.13;;;3.13;;
70729;SDS011;58315;53.336;55.932;2023-03-01T05:57:32;8.52;;;3.65;;
70729;SDS011;58315;53.336;55.932;2023-03-01T05:59:57;7.53;;;2.97;;
70729;SDS011;58315;53.336;55.932;2023-03-01T06:02:23;7.88;;;3.72;;
70729;SDS011;58315;53.336;55.932;2023-03-01T06:04:52;5.60;;;2.90;;
70729;SDS011;58315;53.336;55.932;2023-03-01T06:07:18;6.07;;;3.78;;
70729;SDS011;58315;53.336;55.932;2023-03-01T06:09:47;4.88;;;2.47;;
70729;SDS011;58315;53.336;55.932;2023-03-01T06:12:13;3.92;;;1.95;;
70729;SDS011;58315;53.336;55.932;2023-03-01T06:14:38;3.63;;;2.17;;
70729;SDS011;58315;53.336;55.932;2023-03-01T06:17:04;4.68;;;2.67;;
70729;SDS011;58315;53.336;55.932;2023-03-01T06:19:30;6.95;;;3.65;;
70729;SDS011;58315;53.336;55.932;2023-03-01T06:21:56;11.18;;;3.97;;
70729;SDS011;58315;53.336;55.932;2023-03-01T06:24:22;6.80;;;3.30;;
70729;SDS011;58315;53.336;55.932;2023-03-01T06:26:48;6.75;;;3.47;;
70729;SDS011;58315;53.336;55.932;2023-03-01T06:29:14;5.50;;;2.45;;
70729;SDS011;58315;53.336;55.932;2023-03-01T06:32:02;5.55;;;2.78;;
70729;SDS011;58315;53.336;55.932;2023-03-01T06:34:28;6.00;;;2.38;;
70729;SDS011;58315;53.336;55.932;2023-03-01T06:36:54;7.53;;;3.33;;
70729;SDS011;58315;53.336;55.932;2023-03-01T06:39:20;4.22;;;2.47;;
70729;SDS011;58315;53.336;55.932;2023-03-01T06:41:47;7.50;;;3.30;;
70729;SDS011;58315;53.336;55.932;2023-03-01T06:44:13;6.18;;;2.72;;
70729;SDS011;58315;53.336;55.932;2023-03-01T06:46:39;8.93;;;3.95;;
70729;SDS011;58315;53.336;55.932;2023-03-01T06:49:06;9.57;;;4.15;;
70729;SDS011;58315;53.336;55.932;2023-03-01T06:51:35;6.00;;;2.97;;
70729;SDS011;58315;53.336;55.932;2023-03-01T06:54:03;8.63;;;3.22;;
70729;SDS011;58315;53.336;55.932;2023-03-01T06:56:31;15.48;;;3.20;;
70729;SDS011;58315;53.336;55.932;2023-03-01T06:58:58;9.23;;;4.28;;
70729;SDS011;58315;53.336;55.932;2023-03-01T07:01:24;7.68;;;4.07;;
70729;SDS011;58315;53.336;55.932;2023-03-01T07:03:51;9.00;;;3.97;;
70729;SDS011;58315;53.336;55.932;2023-03-01T07:06:17;10.63;;;4.05;;
70729;SDS011;58315;53.336;55.932;2023-03-01T07:08:43;7.50;;;3.45;;
70729;SDS011;58315;53.336;55.932;2023-03-01T07:13:53;9.73;;;3.97;;
70729;SDS011;58315;53.336;55.932;2023-03-01T07:16:20;8.60;;;3.35;;
70729;SDS011;58315;53.336;55.932;2023-03-01T07:18:50;7.93;;;3.70;;
70729;SDS011;58315;53.336;55.932;2023-03-01T07:21:15;8.23;;;3.15;;
70729;SDS011;58315;53.336;55.932;2023-03-01T07:23:42;6.72;;;4.03;;
70729;SDS011;58315;53.336;55.932;2023-03-01T07:26:08;8.95;;;3.05;;
70729;SDS011;58315;53.336;55.932;2023-03-01T07:28:34;6.47;;;2.92;;
70729;SDS011;58315;53.336;55.932;2023-03-01T07:31:02;9.27;;;4.90;;
70729;SDS011;58315;53.336;55.932;2023-03-01T07:33:28;13.05;;;4.43;;
70729;SDS011;58315;53.336;55.932;2023-03-01T07:35:58;10.02;;;3.83;;
70729;SDS011;58315;53.336;55.932;2023-03-01T07:38:26;21.45;;;3.53;;
70729;SDS011;58315;53.336;55.932;2023-03-01T07:40:52;8.60;;;3.75;;
70729;SDS011;58315;53.336;55.932;2023-03-01T07:43:19;7.80;;;4.00;;
70729;SDS011;58315;53.336;55.932;2023-03-01T07:45:46;8.40;;;3.70;;
70729;SDS011;58315;53.336;55.932;2023-03-01T07:48:12;12.30;;;5.18;;
70729;SDS011;58315;53.336;55.932;2023-03-01T07:50:38;10.90;;;4.35;;
70729;SDS011;58315;53.336;55.932;2023-03-01T07:53:04;10.85;;;5.00;;
70729;SDS011;58315;53.336;55.932;2023-03-01T07:55:30;17.30;;;6.28;;
70729;SDS011;58315;53.336;55.932;2023-03-01T07:57:56;14.07;;;5.68;;
70729;SDS011;58315;53.336;55.932;2023-03-01T08:00:22;7.55;;;3.78;;
70729;SDS011;58315;53.336;55.932;2023-03-01T08:02:48;12.85;;;5.32;;
70729;SDS011;58315;53.336;55.932;2023-03-01T08:05:14;14.57;;;5.97;;
70729;SDS011;58315;53.336;55.932;2023-03-01T08:07:40;11.73;;;5.20;;
70729;SDS011;58315;53.336;55.932;2023-03-01T08:10:06;15.07;;;5.93;;
70729;SDS011;58315;53.336;55.932;2023-03-01T08:12:32;9.00;;;4.50;;
70729;SDS011;58315;53.336;55.932;2023-03-01T08:14:58;18.13;;;6.85;;
70729;SDS011;58315;53.336;55.932;2023-03-01T08:17:43;11.85;;;5.45;;
70729;SDS011;58315;53.336;55.932;2023-03-01T08:20:09;13.90;;;5.93;;
70729;SDS011;58315;53.336;55.932;2023-03-01T08:22:37;14.45;;;5.85;;
70729;SDS011;58315;53.336;55.932;2023-03-01T08:25:04;11.48;;;4.95;;
70729;SDS011;58315;53.336;55.932;2023-03-01T08:27:30;9.52;;;4.20;;
70729;SDS011;58315;53.336;55.932;2023-03-01T08:29:56;15.77;;;6.72;;
70729;SDS011;58315;53.336;55.932;2023-03-01T08:32:22;17.50;;;5.90;;
70729;SDS011;58315;53.336;55.932;2023-03-01T08:34:48;21.02;;;6.32;;
70729;SDS011;58315;53.336;55.932;2023-03-01T08:37:14;14.15;;;5.38;;
70729;SDS011;58315;53.336;55.932;2023-03-01T08:39:40;15.05;;;5.63;;
70729;SDS011;58315;53.336;55.932;2023-03-01T08:42:06;14.25;;;6.28;;
70729;SDS011;58315;53.336;55.932;2023-03-01T08:44:31;14.27;;;4.57;;
70729;SDS011;58315;53.336;55.932;2023-03-01T08:46:57;9.68;;;4.07;;
70729;SDS011;58315;53.336;55.932;2023-03-01T08:49:23;14.20;;;6.03;;
70729;SDS011;58315;53.336;55.932;2023-03-01T08:51:52;12.75;;;5.53;;
70729;SDS011;58315;53.336;55.932;2023-03-01T08:54:19;14.50;;;4.30;;
70729;SDS011;58315;53.336;55.932;2023-03-01T08:56:46;15.48;;;5.97;;
70729;SDS011;58315;53.336;55.932;2023-03-01T08:59:14;11.95;;;6.07;;
70729;SDS011;58315;53.336;55.932;2023-03-01T09:01:41;12.02;;;5.18;;
70729;SDS011;58315;53.336;55.932;2023-03-01T09:04:10;15.48;;;6.20;;
70729;SDS011;58315;53.336;55.932;2023-03-01T09:06:46;12.25;;;5.95;;
70729;SDS011;58315;53.336;55.932;2023-03-01T09:09:15;14.52;;;5.00;;
70729;SDS011;58315;53.336;55.932;2023-03-01T09:11:46;14.50;;;6.07;;
70729;SDS011;58315;53.336;55.932;2023-03-01T09:14:15;17.60;;;6.28;;
70729;SDS011;58315;53.336;55.932;2023-03-01T09:16:47;11.07;;;4.57;;
70729;SDS011;58315;53.336;55.932;2023-03-01T09:19:19;13.65;;;4.47;;
70729;SDS011;58315;53.336;55.932;2023-03-01T09:21:49;14.43;;;6.63;;
70729;SDS011;58315;53.336;55.932;2023-03-01T09:24:22;12.20;;;5.15;;
70729;SDS011;58315;53.336;55.932;2023-03-01T09:26:55;10.23;;;4.85;;
70729;SDS011;58315;53.336;55.932;2023-03-01T09:29:23;13.90;;;6.20;;
70729;SDS011;58315;53.336;55.932;2023-03-01T09:31:49;12.98;;;5.85;;
70729;SDS011;58315;53.336;55.932;2023-03-01T09:34:16;15.05;;;5.25;;
70729;SDS011;58315;53.336;55.932;2023-03-01T09:36:48;12.43;;;5.32;;
70729;SDS011;58315;53.336;55.932;2023-03-01T09:39:15;13.85;;;5.93;;
70729;SDS011;58315;53.336;55.932;2023-03-01T09:41:52;16.25;;;6.32;;
70729;SDS011;58315;53.336;55.932;2023-03-01T09:44:26;18.98;;;5.57;;
70729;SDS011;58315;53.336;55.932;2023-03-01T09:47:20;14.75;;;5.68;;
70729;SDS011;58315;53.336;55.932;2023-03-01T09:50:04;8.63;;;3.85;;
70729;SDS011;58315;53.336;55.932;2023-03-01T09:52:40;14.95;;;4.90;;
70729;SDS011;58315;53.336;55.932;2023-03-01T09:56:19;14.93;;;5.57;;
70729;SDS011;58315;53.336;55.932;2023-03-01T09:58:34;11.60;;;6.07;;
70729;SDS011;58315;53.336;55.932;2023-03-01T10:01:06;10.95;;;5.50;;
70729;SDS011;58315;53.336;55.932;2023-03-01T10:03:58;13.70;;;5.85;;
70729;SDS011;58315;53.336;55.932;2023-03-01T10:06:35;12.23;;;5.43;;
70729;SDS011;58315;53.336;55.932;2023-03-01T10:11:31;15.90;;;5.97;;
70729;SDS011;58315;53.336;55.932;2023-03-01T10:17:12;10.80;;;4.83;;
70729;SDS011;58315;53.336;55.932;2023-03-01T10:19:49;14.00;;;5.70;;
70729;SDS011;58315;53.336;55.932;2023-03-01T10:22:22;14.00;;;6.90;;
70729;SDS011;58315;53.336;55.932;2023-03-01T10:24:56;17.15;;;5.82;;
70729;SDS011;58315;53.336;55.932;2023-03-01T10:27:25;14.18;;;5.50;;
70729;SDS011;58315;53.336;55.932;2023-03-01T10:30:17;11.07;;;4.93;;
70729;SDS011;58315;53.336;55.932;2023-03-01T10:35:51;14.18;;;6.05;;
70729;SDS011;58315;53.336;55.932;2023-03-01T10:38:20;17.92;;;6.40;;
70729;SDS011;58315;53.336;55.932;2023-03-01T10:40:54;12.65;;;5.47;;
70729;SDS011;58315;53.336;55.932;2023-03-01T10:43:25;7.40;;;4.05;;
70729;SDS011;58315;53.336;55.932;2023-03-01T10:45:55;13.95;;;5.50;;
70729;SDS011;58315;53.336;55.932;2023-03-01T10:48:24;17.58;;;5.65;;
70729;SDS011;58315;53.336;55.932;2023-03-01T10:53:26;14.43;;;5.63;;
70729;SDS011;58315;53.336;55.932;2023-03-01T10:56:01;12.18;;;4.93;;
70729;SDS011;58315;53.336;55.932;2023-03-01T10:58:37;22.17;;;6.40;;
70729;SDS011;58315;53.336;55.932;2023-03-01T11:01:06;14.73;;;5.50;;
70729;SDS011;58315;53.336;55.932;2023-03-01T11:06:31;19.17;;;5.50;;
70729;SDS011;58315;53.336;55.932;2023-03-01T11:09:20;11.55;;;5.68;;
70729;SDS011;58315;53.336;55.932;2023-03-01T11:11:54;11.85;;;5.63;;
70729;SDS011;58315;53.336;55.932;2023-03-01T11:22:55;15.55;;;4.35;;
70729;SDS011;58315;53.336;55.932;2023-03-01T11:25:26;11.68;;;4.15;;
70729;SDS011;58315;53.336;55.932;2023-03-01T11:27:58;12.45;;;5.78;;
70729;SDS011;58315;53.336;55.932;2023-03-01T11:30:28;10.20;;;4.20;;
70729;SDS011;58315;53.336;55.932;2023-03-01T11:35:47;9.68;;;4.97;;
70729;SDS011;58315;53.336;55.932;2023-03-01T11:38:25;10.70;;;4.80;;
70729;SDS011;58315;53.336;55.932;2023-03-01T11:40:54;13.63;;;4.95;;
70729;SDS011;58315;53.336;55.932;2023-03-01T11:57:05;6.90;;;3.55;;
70729;SDS011;58315;53.336;55.932;2023-03-01T12:00:03;7.28;;;3.13;;
70729;SDS011;58315;53.336;55.932;2023-03-01T12:05:45;12.02;;;4.40;;
70729;SDS011;58315;53.336;55.932;2023-03-01T12:08:26;13.93;;;4.45;;
70729;SDS011;58315;53.336;55.932;2023-03-01T12:22:09;8.32;;;4.28;;
70729;SDS011;58315;53.336;55.932;2023-03-01T12:25:20;12.20;;;4.15;;
70729;SDS011;58315;53.336;55.932;2023-03-01T12:36:22;10.45;;;5.00;;
70729;SDS011;58315;53.336;55.932;2023-03-01T12:50:26;9.45;;;3.92;;
70729;SDS011;58315;53.336;55.932;2023-03-01T12:53:49;12.52;;;4.63;;
70729;SDS011;58315;53.336;55.932;2023-03-01T13:04:41;8.35;;;3.47;;
70729;SDS011;58315;53.336;55.932;2023-03-01T13:12:50;12.07;;;4.15;;
70729;SDS011;58315;53.336;55.932;2023-03-01T13:33:56;9.00;;;3.15;;
70729;SDS011;58315;53.336;55.932;2023-03-01T13:46:52;10.02;;;4.38;;
70729;SDS011;58315;53.336;55.932;2023-03-01T13:49:22;15.07;;;3.47;;
70729;SDS011;58315;53.336;55.932;2023-03-01T13:51:53;10.07;;;4.43;;
70729;SDS011;58315;53.336;55.932;2023-03-01T13:54:26;6.25;;;4.03;;
70729;SDS011;58315;53.336;55.932;2023-03-01T13:56:57;6.82;;;3.92;;
70729;SDS011;58315;53.336;55.932;2023-03-01T13:59:27;7.68;;;4.15;;
70729;SDS011;58315;53.336;55.932;2023-03-01T14:04:26;9.13;;;3.90;;
70729;SDS011;58315;53.336;55.932;2023-03-01T14:07:11;8.85;;;3.60;;
70729;SDS011;58315;53.336;55.932;2023-03-01T14:09:54;8.38;;;4.57;;
70729;SDS011;58315;53.336;55.932;2023-03-01T14:20:37;5.88;;;3.75;;
70729;SDS011;58315;53.336;55.932;2023-03-01T14:23:22;9.70;;;4.53;;
70729;SDS011;58315;53.336;55.932;2023-03-01T14:25:52;7.78;;;3.83;;
70729;SDS011;58315;53.336;55.932;2023-03-01T14:31:29;10.50;;;3.40;;
70729;SDS011;58315;53.336;55.932;2023-03-01T14:34:16;10.68;;;3.60;;
70729;SDS011;58315;53.336;55.932;2023-03-01T14:36:45;10.93;;;3.40;;
70729;SDS011;58315;53.336;55.932;2023-03-01T14:39:18;11.82;;;3.63;;
70729;SDS011;58315;53.336;55.932;2023-03-01T14:41:46;12.35;;;4.57;;
70729;SDS011;58315;53.336;55.932;2023-03-01T14:44:15;7.43;;;3.60;;
70729;SDS011;58315;53.336;55.932;2023-03-01T14:46:51;7.25;;;3.15;;
70729;SDS011;58315;53.336;55.932;2023-03-01T14:49:25;11.75;;;3.88;;
70729;SDS011;58315;53.336;55.932;2023-03-01T14:54:47;7.43;;;3.30;;
70729;SDS011;58315;53.336;55.932;2023-03-01T14:57:20;9.57;;;3.55;;
70729;SDS011;58315;53.336;55.932;2023-03-01T14:59:48;11.82;;;4.15;;
70729;SDS011;58315;53.336;55.932;2023-03-01T15:02:19;9.30;;;4.27;;
70729;SDS011;58315;53.336;55.932;2023-03-01T15:04:54;5.90;;;3.05;;
70729;SDS011;58315;53.336;55.932;2023-03-01T15:07:39;6.90;;;3.08;;
70729;SDS011;58315;53.336;55.932;2023-03-01T15:10:17;10.43;;;3.45;;
70729;SDS011;58315;53.336;55.932;2023-03-01T15:12:50;6.90;;;2.45;;
70729;SDS011;58315;53.336;55.932;2023-03-01T15:17:52;14.88;;;2.92;;
70729;SDS011;58315;53.336;55.932;2023-03-01T15:20:27;9.38;;;3.72;;
70729;SDS011;58315;53.336;55.932;2023-03-01T15:22:57;7.05;;;2.97;;
70729;SDS011;58315;53.336;55.932;2023-03-01T15:25:26;5.25;;;2.88;;
70729;SDS011;58315;53.336;55.932;2023-03-01T15:27:55;4.95;;;2.25;;
70729;SDS011;58315;53.336;55.932;2023-03-01T15:30:24;4.70;;;2.33;;
70729;SDS011;58315;53.336;55.932;2023-03-01T15:41:21;6.90;;;3.03;;
70729;SDS011;58315;53.336;55.932;2023-03-01T15:43:49;6.88;;;3.15;;
70729;SDS011;58315;53.336;55.932;2023-03-01T15:46:31;6.03;;;2.65;;
70729;SDS011;58315;53.336;55.932;2023-03-01T15:49:00;5.22;;;2.95;;
70729;SDS011;58315;53.336;55.932;2023-03-01T15:51:33;5.35;;;2.38;;
70729;SDS011;58315;53.336;55.932;2023-03-01T15:54:04;4.93;;;2.95;;
70729;SDS011;58315;53.336;55.932;2023-03-01T15:56:39;11.82;;;4.32;;
70729;SDS011;58315;53.336;55.932;2023-03-01T15:59:11;3.65;;;2.15;;
70729;SDS011;58315;53.336;55.932;2023-03-01T16:01:41;6.80;;;3.63;;
70729;SDS011;58315;53.336;55.932;2023-03-01T16:04:11;6.93;;;3.78;;
70729;SDS011;58315;53.336;55.932;2023-03-01T16:06:46;12.25;;;4.00;;
70729;SDS011;58315;53.336;55.932;2023-03-01T16:09:22;11.05;;;4.43;;
70729;SDS011;58315;53.336;55.932;2023-03-01T16:11:52;8.48;;;3.90;;
70729;SDS011;58315;53.336;55.932;2023-03-01T16:14:22;7.97;;;4.22;;
70729;SDS011;58315;53.336;55.932;2023-03-01T16:16:51;5.82;;;2.92;;
70729;SDS011;58315;53.336;55.932;2023-03-01T16:19:19;7.30;;;3.53;;
70729;SDS011;58315;53.336;55.932;2023-03-01T16:21:48;6.68;;;3.50;;
70729;SDS011;58315;53.336;55.932;2023-03-01T16:24:17;6.05;;;3.15;;
70729;SDS011;58315;53.336;55.932;2023-03-01T16:26:46;8.15;;;3.90;;
70729;SDS011;58315;53.336;55.932;2023-03-01T16:29:12;9.38;;;4.03;;
70729;SDS011;58315;53.336;55.932;2023-03-01T16:31:38;8.63;;;4.20;;
70729;SDS011;58315;53.336;55.932;2023-03-01T16:34:06;8.48;;;4.55;;
70729;SDS011;58315;53.336;55.932;2023-03-01T16:36:32;8.43;;;4.13;;
70729;SDS011;58315;53.336;55.932;2023-03-01T16:38:59;12.68;;;5.32;;
70729;SDS011;58315;53.336;55.932;2023-03-01T16:41:28;13.73;;;5.72;;
70729;SDS011;58315;53.336;55.932;2023-03-01T16:43:54;19.02;;;6.55;;
70729;SDS011;58315;53.336;55.932;2023-03-01T16:46:22;12.77;;;5.93;;
70729;SDS011;58315;53.336;55.932;2023-03-01T16:48:54;16.23;;;6.35;;
70729;SDS011;58315;53.336;55.932;2023-03-01T16:51:20;18.70;;;7.30;;
70729;SDS011;58315;53.336;55.932;2023-03-01T16:53:50;18.23;;;6.27;;
70729;SDS011;58315;53.336;55.932;2023-03-01T16:56:17;14.20;;;5.80;;
70729;SDS011;58315;53.336;55.932;2023-03-01T16:58:44;8.48;;;3.55;;
70729;SDS011;58315;53.336;55.932;2023-03-01T17:01:12;11.35;;;3.85;;
70729;SDS011;58315;53.336;55.932;2023-03-01T17:03:44;8.60;;;3.67;;
70729;SDS011;58315;53.336;55.932;2023-03-01T17:06:14;8.27;;;3.08;;
70729;SDS011;58315;53.336;55.932;2023-03-01T17:08:43;12.00;;;3.30;;
70729;SDS011;58315;53.336;55.932;2023-03-01T17:11:10;7.03;;;3.80;;
70729;SDS011;58315;53.336;55.932;2023-03-01T17:13:41;10.23;;;4.20;;
70729;SDS011;58315;53.336;55.932;2023-03-01T17:16:10;8.73;;;2.90;;
70729;SDS011;58315;53.336;55.932;2023-03-01T17:18:38;6.45;;;3.53;;
70729;SDS011;58315;53.336;55.932;2023-03-01T17:21:05;5.90;;;2.65;;
70729;SDS011;58315;53.336;55.932;2023-03-01T17:23:33;3.97;;;2.45;;
70729;SDS011;58315;53.336;55.932;2023-03-01T17:26:00;8.98;;;2.97;;
70729;SDS011;58315;53.336;55.932;2023-03-01T17:28:27;6.28;;;3.38;;
70729;SDS011;58315;53.336;55.932;2023-03-01T17:30:54;6.47;;;2.55;;
70729;SDS011;58315;53.336;55.932;2023-03-01T17:33:21;4.28;;;2.03;;